CYBB

Pelly Bay Airport

Pelly Bay, Canada
METAR CYBB 240000Z 23018KT 1 3/4SM BR DRSN BKN010 BKN090 BKN230 M30/M34 A3020 RMK FG3ST3AC1CI1 AC TR CI TR ROOF VIS 10SM -30.0/-31.7/0.0/LAST STFD OBS/NXT 241300 PRESFR SLP233
Observed Flight Rules
Jan-24 @ 00:00 UTC (12 hours ago) Instrument Flight Rules
Wind Visibility Clouds Conditions
230° at 18 knots 1 3/4 miles
  • Broken at 1,000' AGL
  • Broken at 9,000' AGL
  • Broken at 23,000' AGL
  • Mist
  • Low drifting
  • Snow
Temperatures Readings
Current -30°C / -22°F
Dewpoint -34°C / -29°F
Humidity 68%
Altimeter 30.2" Hg
Pressure 1023.3 hPa
Elevation 15
METAR CYBB 240000Z 23018KT 1 3/4SM BR DRSN BKN010 BKN090 BKN230 M30/M34 A3020 RMK FG3ST3AC1CI1 AC TR CI TR ROOF VIS 10SM -30.0/-31.7/0.0/LAST STFD OBS/NXT 241300 PRESFR SLP233
Observed Flight Rules
Jan-24 @ 00:00 UTC
(12 hours ago)
IFR
Wind Visibility
230° at 18 knots 1 3/4 miles
Clouds
  • Broken at 1,000' AGL
  • Broken at 9,000' AGL
  • Broken at 23,000' AGL
Conditions
  • Mist
  • Low drifting
  • Snow
Temperature Dewpoint
-30°C / -22°F -34°C / -29°F
Humidity Altimeter Pressure
68% 30.2" Hg 1023.3 hPa